Terminal Aerodrome Forecast
Issued by NWS Amarillo, TX

Home | Current Version | Previous Version | Text Only | Print | Product List | Glossary On
Versions: 1 2 3 4 5 6 7 8 9 10 11 12 13 14 15
913
FTUS44 KAMA 192327
TAFGUY
TAF
KGUY 192327Z 2000/2024 21017G27KT P6SM SCT040 OVC300
     FM200100 20011KT P6SM SCT100 BKN300
     FM201000 25012KT P6SM SCT300
     FM201400 33017KT P6SM SKC
     FM201800 35020G30KT P6SM SKC=

USA.gov is the U.S. government's official web portal to all federal, state and local government web resources and services.